sensor_id;sensor_type;location;lat;lon;timestamp;temperature;humidity
8487;DHT22;4280;50.534;8.708;2022-07-29T00:19:23;18.90;1.00
8487;DHT22;4280;50.534;8.708;2022-07-29T00:21:53;19.10;1.00
8487;DHT22;4280;50.534;8.708;2022-07-29T00:24:23;19.10;1.00
8487;DHT22;4280;50.534;8.708;2022-07-29T00:26:53;19.10;1.00
8487;DHT22;4280;50.534;8.708;2022-07-29T00:29:23;19.10;1.00
8487;DHT22;4280;50.534;8.708;2022-07-29T00:31:59;19.10;1.00
8487;DHT22;4280;50.534;8.708;2022-07-29T00:34:31;19.10;1.00
8487;DHT22;4280;50.534;8.708;2022-07-29T00:37:14;19.10;1.00
8487;DHT22;4280;50.534;8.708;2022-07-29T00:39:44;19.00;1.00
8487;DHT22;4280;50.534;8.708;2022-07-29T00:42:14;19.00;1.00
8487;DHT22;4280;50.534;8.708;2022-07-29T00:44:44;18.90;1.00
8487;DHT22;4280;50.534;8.708;2022-07-29T00:47:13;18.90;1.00
8487;DHT22;4280;50.534;8.708;2022-07-29T00:49:46;18.90;1.00
8487;DHT22;4280;50.534;8.708;2022-07-29T00:52:16;19.00;1.00
8487;DHT22;4280;50.534;8.708;2022-07-29T00:54:46;19.10;1.00
8487;DHT22;4280;50.534;8.708;2022-07-29T00:57:16;19.10;1.00
8487;DHT22;4280;50.534;8.708;2022-07-29T00:59:46;19.10;1.00
8487;DHT22;4280;50.534;8.708;2022-07-29T01:02:16;19.10;1.00
8487;DHT22;4280;50.534;8.708;2022-07-29T01:04:48;19.00;1.00
8487;DHT22;4280;50.534;8.708;2022-07-29T01:07:18;19.00;1.00
8487;DHT22;4280;50.534;8.708;2022-07-29T01:09:48;18.90;1.00
8487;DHT22;4280;50.534;8.708;2022-07-29T01:12:19;19.00;1.00
8487;DHT22;4280;50.534;8.708;2022-07-29T01:14:51;19.10;1.00
8487;DHT22;4280;50.534;8.708;2022-07-29T01:17:24;19.10;1.00
8487;DHT22;4280;50.534;8.708;2022-07-29T01:20:00;19.10;1.00
8487;DHT22;4280;50.534;8.708;2022-07-29T01:22:35;19.10;1.00
8487;DHT22;4280;50.534;8.708;2022-07-29T01:25:26;19.10;1.00
8487;DHT22;4280;50.534;8.708;2022-07-29T01:28:08;19.10;1.00
8487;DHT22;4280;50.534;8.708;2022-07-29T01:30:51;19.10;1.00
8487;DHT22;4280;50.534;8.708;2022-07-29T01:33:22;19.10;1.00
8487;DHT22;4280;50.534;8.708;2022-07-29T01:36:07;19.20;1.00
8487;DHT22;4280;50.534;8.708;2022-07-29T01:38:41;19.10;1.00
8487;DHT22;4280;50.534;8.708;2022-07-29T01:41:14;19.10;1.00
8487;DHT22;4280;50.534;8.708;2022-07-29T01:43:56;19.00;1.00
8487;DHT22;4280;50.534;8.708;2022-07-29T01:46:31;19.00;1.00
8487;DHT22;4280;50.534;8.708;2022-07-29T01:49:05;18.90;1.00
8487;DHT22;4280;50.534;8.708;2022-07-29T01:51:40;18.90;1.00
8487;DHT22;4280;50.534;8.708;2022-07-29T01:54:15;18.80;1.00
8487;DHT22;4280;50.534;8.708;2022-07-29T01:56:48;18.70;1.20
8487;DHT22;4280;50.534;8.708;2022-07-29T01:59:20;18.60;4.50
8487;DHT22;4280;50.534;8.708;2022-07-29T02:01:53;18.40;5.70
8487;DHT22;4280;50.534;8.708;2022-07-29T02:04:25;18.30;9.60
8487;DHT22;4280;50.534;8.708;2022-07-29T02:06:58;18.10;12.00
8487;DHT22;4280;50.534;8.708;2022-07-29T02:09:30;18.00;17.80
8487;DHT22;4280;50.534;8.708;2022-07-29T02:12:02;17.80;25.00
8487;DHT22;4280;50.534;8.708;2022-07-29T02:14:34;17.80;20.00
8487;DHT22;4280;50.534;8.708;2022-07-29T02:17:09;17.80;19.90
8487;DHT22;4280;50.534;8.708;2022-07-29T02:19:40;17.70;17.20
8487;DHT22;4280;50.534;8.708;2022-07-29T02:22:12;17.70;29.80
8487;DHT22;4280;50.534;8.708;2022-07-29T02:24:43;17.50;26.90
8487;DHT22;4280;50.534;8.708;2022-07-29T02:27:14;17.40;24.70
8487;DHT22;4280;50.534;8.708;2022-07-29T02:29:45;17.40;23.60
8487;DHT22;4280;50.534;8.708;2022-07-29T02:32:18;17.40;23.00
8487;DHT22;4280;50.534;8.708;2022-07-29T02:34:49;17.40;21.40
8487;DHT22;4280;50.534;8.708;2022-07-29T02:37:19;17.40;27.80
8487;DHT22;4280;50.534;8.708;2022-07-29T02:39:50;17.40;30.60
8487;DHT22;4280;50.534;8.708;2022-07-29T02:42:21;17.40;30.00
8487;DHT22;4280;50.534;8.708;2022-07-29T02:44:52;17.30;35.50
8487;DHT22;4280;50.534;8.708;2022-07-29T02:47:27;17.20;35.70
8487;DHT22;4280;50.534;8.708;2022-07-29T02:50:02;17.10;36.90
8487;DHT22;4280;50.534;8.708;2022-07-29T02:52:36;16.90;46.10
8487;DHT22;4280;50.534;8.708;2022-07-29T02:55:11;16.80;53.70
8487;DHT22;4280;50.534;8.708;2022-07-29T02:57:46;16.80;53.70
8487;DHT22;4280;50.534;8.708;2022-07-29T03:00:17;16.80;53.80
8487;DHT22;4280;50.534;8.708;2022-07-29T03:02:50;16.90;41.70
8487;DHT22;4280;50.534;8.708;2022-07-29T03:05:22;16.90;36.30
8487;DHT22;4280;50.534;8.708;2022-07-29T03:07:53;16.90;39.10
8487;DHT22;4280;50.534;8.708;2022-07-29T03:10:25;16.90;32.30
8487;DHT22;4280;50.534;8.708;2022-07-29T03:12:55;17.00;29.50
8487;DHT22;4280;50.534;8.708;2022-07-29T03:15:26;17.00;34.40
8487;DHT22;4280;50.534;8.708;2022-07-29T03:17:59;17.10;35.60
8487;DHT22;4280;50.534;8.708;2022-07-29T03:20:29;17.10;32.80
8487;DHT22;4280;50.534;8.708;2022-07-29T03:22:59;17.10;36.70
8487;DHT22;4280;50.534;8.708;2022-07-29T03:25:29;17.10;37.70
8487;DHT22;4280;50.534;8.708;2022-07-29T03:28:00;17.30;32.10
8487;DHT22;4280;50.534;8.708;2022-07-29T03:30:30;17.30;35.70
8487;DHT22;4280;50.534;8.708;2022-07-29T03:33:02;17.30;40.90
8487;DHT22;4280;50.534;8.708;2022-07-29T03:35:32;17.20;36.30
8487;DHT22;4280;50.534;8.708;2022-07-29T03:38:02;17.10;41.80
8487;DHT22;4280;50.534;8.708;2022-07-29T03:40:32;17.10;41.70
8487;DHT22;4280;50.534;8.708;2022-07-29T03:43:05;17.20;36.20
8487;DHT22;4280;50.534;8.708;2022-07-29T03:45:35;17.20;35.60
8487;DHT22;4280;50.534;8.708;2022-07-29T03:48:10;17.20;37.40
8487;DHT22;4280;50.534;8.708;2022-07-29T03:50:43;17.10;41.80
8487;DHT22;4280;50.534;8.708;2022-07-29T03:53:13;17.10;42.90
8487;DHT22;4280;50.534;8.708;2022-07-29T03:55:44;17.00;47.90
8487;DHT22;4280;50.534;8.708;2022-07-29T03:58:15;17.10;47.10
8487;DHT22;4280;50.534;8.708;2022-07-29T04:00:45;17.10;43.70
8487;DHT22;4280;50.534;8.708;2022-07-29T04:03:18;17.20;40.00
8487;DHT22;4280;50.534;8.708;2022-07-29T04:05:57;17.20;42.10
8487;DHT22;4280;50.534;8.708;2022-07-29T04:08:28;16.90;45.70
8487;DHT22;4280;50.534;8.708;2022-07-29T04:10:58;16.70;53.70
8487;DHT22;4280;50.534;8.708;2022-07-29T04:13:28;16.60;58.80
8487;DHT22;4280;50.534;8.708;2022-07-29T04:15:58;16.50;61.90
8487;DHT22;4280;50.534;8.708;2022-07-29T04:18:31;16.40;65.20
8487;DHT22;4280;50.534;8.708;2022-07-29T04:21:01;16.30;88.20
8487;DHT22;4280;50.534;8.708;2022-07-29T04:23:31;16.00;99.90
8487;DHT22;4280;50.534;8.708;2022-07-29T04:26:01;15.80;99.90
8487;DHT22;4280;50.534;8.708;2022-07-29T04:28:31;15.50;99.90
8487;DHT22;4280;50.534;8.708;2022-07-29T04:31:01;15.30;99.90
8487;DHT22;4280;50.534;8.708;2022-07-29T04:33:34;15.20;99.90
8487;DHT22;4280;50.534;8.708;2022-07-29T04:36:04;15.20;99.90
8487;DHT22;4280;50.534;8.708;2022-07-29T04:38:34;15.20;99.90
8487;DHT22;4280;50.534;8.708;2022-07-29T04:41:04;15.20;99.90
8487;DHT22;4280;50.534;8.708;2022-07-29T04:43:35;15.20;99.90
8487;DHT22;4280;50.534;8.708;2022-07-29T04:46:06;15.10;99.90
8487;DHT22;4280;50.534;8.708;2022-07-29T04:48:38;15.00;99.90
8487;DHT22;4280;50.534;8.708;2022-07-29T04:51:08;14.80;99.90
8487;DHT22;4280;50.534;8.708;2022-07-29T04:53:38;14.60;99.90
8487;DHT22;4280;50.534;8.708;2022-07-29T04:56:08;14.70;99.90
8487;DHT22;4280;50.534;8.708;2022-07-29T04:58:38;14.60;99.90
8487;DHT22;4280;50.534;8.708;2022-07-29T05:01:08;14.70;99.90
8487;DHT22;4280;50.534;8.708;2022-07-29T05:03:41;14.70;99.90
8487;DHT22;4280;50.534;8.708;2022-07-29T05:06:11;14.80;99.90
8487;DHT22;4280;50.534;8.708;2022-07-29T05:08:41;14.80;99.90
8487;DHT22;4280;50.534;8.708;2022-07-29T05:11:11;14.90;99.90
8487;DHT22;4280;50.534;8.708;2022-07-29T05:13:45;14.90;99.90
8487;DHT22;4280;50.534;8.708;2022-07-29T05:16:15;14.90;99.90
8487;DHT22;4280;50.534;8.708;2022-07-29T05:18:47;14.80;99.90
8487;DHT22;4280;50.534;8.708;2022-07-29T05:21:17;14.80;99.90
8487;DHT22;4280;50.534;8.708;2022-07-29T05:23:47;14.80;99.90
8487;DHT22;4280;50.534;8.708;2022-07-29T05:26:17;14.80;99.90
8487;DHT22;4280;50.534;8.708;2022-07-29T05:28:47;14.80;99.90
8487;DHT22;4280;50.534;8.708;2022-07-29T05:31:17;14.80;99.90
8487;DHT22;4280;50.534;8.708;2022-07-29T05:33:50;14.70;99.90
8487;DHT22;4280;50.534;8.708;2022-07-29T05:36:20;14.70;99.90
8487;DHT22;4280;50.534;8.708;2022-07-29T05:38:50;14.80;99.90
8487;DHT22;4280;50.534;8.708;2022-07-29T05:41:21;14.90;99.90
8487;DHT22;4280;50.534;8.708;2022-07-29T05:43:51;15.10;99.90
8487;DHT22;4280;50.534;8.708;2022-07-29T05:46:21;15.10;99.90
8487;DHT22;4280;50.534;8.708;2022-07-29T05:48:54;15.20;99.90
8487;DHT22;4280;50.534;8.708;2022-07-29T05:51:24;15.30;99.90
8487;DHT22;4280;50.534;8.708;2022-07-29T05:53:54;15.30;99.90
8487;DHT22;4280;50.534;8.708;2022-07-29T05:56:24;15.40;99.90
8487;DHT22;4280;50.534;8.708;2022-07-29T05:58:54;15.50;99.90
8487;DHT22;4280;50.534;8.708;2022-07-29T06:01:24;15.70;99.90
8487;DHT22;4280;50.534;8.708;2022-07-29T06:03:56;16.40;99.90
8487;DHT22;4280;50.534;8.708;2022-07-29T06:06:27;17.20;90.00
8487;DHT22;4280;50.534;8.708;2022-07-29T06:08:57;17.80;77.30
8487;DHT22;4280;50.534;8.708;2022-07-29T06:11:27;18.30;66.80
8487;DHT22;4280;50.534;8.708;2022-07-29T06:13:57;18.50;61.20
8487;DHT22;4280;50.534;8.708;2022-07-29T06:16:26;18.60;69.80
8487;DHT22;4280;50.534;8.708;2022-07-29T06:18:59;17.80;77.20
8487;DHT22;4280;50.534;8.708;2022-07-29T06:21:30;17.50;82.50
8487;DHT22;4280;50.534;8.708;2022-07-29T06:24:00;17.50;81.70
8487;DHT22;4280;50.534;8.708;2022-07-29T06:26:30;17.80;77.30
8487;DHT22;4280;50.534;8.708;2022-07-29T06:29:02;17.60;77.00
8487;DHT22;4280;50.534;8.708;2022-07-29T06:31:32;17.30;87.40
8487;DHT22;4280;50.534;8.708;2022-07-29T06:34:05;17.40;87.50
8487;DHT22;4280;50.534;8.708;2022-07-29T06:36:36;17.30;88.10
8487;DHT22;4280;50.534;8.708;2022-07-29T06:39:07;16.90;87.00
8487;DHT22;4280;50.534;8.708;2022-07-29T06:41:37;17.00;92.80
8487;DHT22;4280;50.534;8.708;2022-07-29T06:44:10;17.10;94.10
8487;DHT22;4280;50.534;8.708;2022-07-29T06:46:42;17.40;91.20
8487;DHT22;4280;50.534;8.708;2022-07-29T06:49:16;17.50;87.60
8487;DHT22;4280;50.534;8.708;2022-07-29T06:51:46;17.40;85.80
8487;DHT22;4280;50.534;8.708;2022-07-29T06:54:16;17.40;90.10
8487;DHT22;4280;50.534;8.708;2022-07-29T06:56:46;17.50;84.20
8487;DHT22;4280;50.534;8.708;2022-07-29T06:59:16;17.60;77.30
8487;DHT22;4280;50.534;8.708;2022-07-29T07:01:48;17.80;84.00
8487;DHT22;4280;50.534;8.708;2022-07-29T07:04:21;17.90;79.20
8487;DHT22;4280;50.534;8.708;2022-07-29T07:06:51;18.00;79.40
8487;DHT22;4280;50.534;8.708;2022-07-29T07:09:22;18.00;70.20
8487;DHT22;4280;50.534;8.708;2022-07-29T07:11:52;18.30;66.70
8487;DHT22;4280;50.534;8.708;2022-07-29T07:14:22;18.30;65.20
8487;DHT22;4280;50.534;8.708;2022-07-29T07:16:53;18.40;59.00
8487;DHT22;4280;50.534;8.708;2022-07-29T07:19:26;18.50;62.30
8487;DHT22;4280;50.534;8.708;2022-07-29T07:21:56;18.60;61.30
8487;DHT22;4280;50.534;8.708;2022-07-29T07:24:26;18.80;43.40
8487;DHT22;4280;50.534;8.708;2022-07-29T07:26:59;18.80;46.90
8487;DHT22;4280;50.534;8.708;2022-07-29T07:29:29;19.20;43.80
8487;DHT22;4280;50.534;8.708;2022-07-29T07:32:01;19.30;43.80
8487;DHT22;4280;50.534;8.708;2022-07-29T07:34:34;19.30;35.50
8487;DHT22;4280;50.534;8.708;2022-07-29T07:37:04;19.30;38.30
8487;DHT22;4280;50.534;8.708;2022-07-29T07:39:35;19.30;38.70
8487;DHT22;4280;50.534;8.708;2022-07-29T07:42:05;19.60;40.40
8487;DHT22;4280;50.534;8.708;2022-07-29T07:44:37;19.60;39.50
8487;DHT22;4280;50.534;8.708;2022-07-29T07:47:17;19.60;40.40
8487;DHT22;4280;50.534;8.708;2022-07-29T07:49:50;19.80;29.00
8487;DHT22;4280;50.534;8.708;2022-07-29T07:52:20;19.50;31.40
8487;DHT22;4280;50.534;8.708;2022-07-29T07:54:51;19.80;31.70
8487;DHT22;4280;50.534;8.708;2022-07-29T07:57:21;20.10;30.00
8487;DHT22;4280;50.534;8.708;2022-07-29T07:59:51;20.40;32.30
8487;DHT22;4280;50.534;8.708;2022-07-29T08:02:20;20.50;32.40
8487;DHT22;4280;50.534;8.708;2022-07-29T08:04:53;20.40;30.10
8487;DHT22;4280;50.534;8.708;2022-07-29T08:07:23;20.50;31.90
8487;DHT22;4280;50.534;8.708;2022-07-29T08:09:53;20.60;30.30
8487;DHT22;4280;50.534;8.708;2022-07-29T08:12:23;20.70;27.10
8487;DHT22;4280;50.534;8.708;2022-07-29T08:14:53;20.80;26.80
8487;DHT22;4280;50.534;8.708;2022-07-29T08:17:23;20.90;25.80
8487;DHT22;4280;50.534;8.708;2022-07-29T08:19:55;21.10;25.30
8487;DHT22;4280;50.534;8.708;2022-07-29T08:22:25;20.90;25.00
8487;DHT22;4280;50.534;8.708;2022-07-29T08:24:56;20.90;26.50
8487;DHT22;4280;50.534;8.708;2022-07-29T08:27:26;21.10;22.20
8487;DHT22;4280;50.534;8.708;2022-07-29T08:30:13;21.00;24.20
8487;DHT22;4280;50.534;8.708;2022-07-29T08:32:44;21.70;22.70
8487;DHT22;4280;50.534;8.708;2022-07-29T08:35:22;22.00;22.90
8487;DHT22;4280;50.534;8.708;2022-07-29T08:37:53;22.30;17.90
8487;DHT22;4280;50.534;8.708;2022-07-29T08:40:23;22.60;17.20
8487;DHT22;4280;50.534;8.708;2022-07-29T08:42:53;22.80;15.50
8487;DHT22;4280;50.534;8.708;2022-07-29T08:45:23;22.70;15.80
8487;DHT22;4280;50.534;8.708;2022-07-29T08:47:56;22.50;16.50
8487;DHT22;4280;50.534;8.708;2022-07-29T08:50:29;22.90;16.30
8487;DHT22;4280;50.534;8.708;2022-07-29T08:52:59;23.20;16.00
8487;DHT22;4280;50.534;8.708;2022-07-29T08:55:29;23.10;13.20
8487;DHT22;4280;50.534;8.708;2022-07-29T08:58:00;23.30;14.70
8487;DHT22;4280;50.534;8.708;2022-07-29T09:00:30;23.40;13.40
8487;DHT22;4280;50.534;8.708;2022-07-29T09:03:02;23.10;13.10
8487;DHT22;4280;50.534;8.708;2022-07-29T09:05:36;23.40;13.40
8487;DHT22;4280;50.534;8.708;2022-07-29T09:08:08;23.50;13.40
8487;DHT22;4280;50.534;8.708;2022-07-29T09:10:40;23.20;12.30
8487;DHT22;4280;50.534;8.708;2022-07-29T09:13:10;23.30;13.30
8487;DHT22;4280;50.534;8.708;2022-07-29T09:15:40;23.70;10.20
8487;DHT22;4280;50.534;8.708;2022-07-29T09:18:10;23.80;10.40
8487;DHT22;4280;50.534;8.708;2022-07-29T09:20:44;23.70;12.20
8487;DHT22;4280;50.534;8.708;2022-07-29T09:23:36;23.70;11.50
8487;DHT22;4280;50.534;8.708;2022-07-29T09:26:08;24.10;8.70
8487;DHT22;4280;50.534;8.708;2022-07-29T09:28:41;24.20;8.20
8487;DHT22;4280;50.534;8.708;2022-07-29T09:31:11;24.30;5.50
8487;DHT22;4280;50.534;8.708;2022-07-29T09:33:42;24.60;3.90
8487;DHT22;4280;50.534;8.708;2022-07-29T09:36:16;24.40;3.90
8487;DHT22;4280;50.534;8.708;2022-07-29T09:38:56;24.60;6.80
8487;DHT22;4280;50.534;8.708;2022-07-29T09:41:27;25.00;3.60
8487;DHT22;4280;50.534;8.708;2022-07-29T09:43:57;25.30;3.80
8487;DHT22;4280;50.534;8.708;2022-07-29T09:46:30;25.20;3.70
8487;DHT22;4280;50.534;8.708;2022-07-29T09:49:06;25.20;3.70
8487;DHT22;4280;50.534;8.708;2022-07-29T09:51:39;25.10;3.60
8487;DHT22;4280;50.534;8.708;2022-07-29T09:54:22;24.40;5.60
8487;DHT22;4280;50.534;8.708;2022-07-29T09:56:53;24.00;8.40
8487;DHT22;4280;50.534;8.708;2022-07-29T09:59:25;24.20;4.40
8487;DHT22;4280;50.534;8.708;2022-07-29T10:01:55;24.50;4.40
8487;DHT22;4280;50.534;8.708;2022-07-29T10:04:36;24.60;3.30
8487;DHT22;4280;50.534;8.708;2022-07-29T10:07:10;25.00;3.60
8487;DHT22;4280;50.534;8.708;2022-07-29T10:09:49;25.40;1.10
8487;DHT22;4280;50.534;8.708;2022-07-29T10:12:21;25.80;1.00
8487;DHT22;4280;50.534;8.708;2022-07-29T10:14:53;25.90;1.00
8487;DHT22;4280;50.534;8.708;2022-07-29T10:17:23;26.20;1.00
8487;DHT22;4280;50.534;8.708;2022-07-29T10:19:55;26.20;1.00
8487;DHT22;4280;50.534;8.708;2022-07-29T10:22:27;26.00;1.00
8487;DHT22;4280;50.534;8.708;2022-07-29T10:25:17;26.10;1.00
8487;DHT22;4280;50.534;8.708;2022-07-29T10:27:49;25.80;1.00
8487;DHT22;4280;50.534;8.708;2022-07-29T10:30:23;25.80;1.00
8487;DHT22;4280;50.534;8.708;2022-07-29T10:32:57;25.50;1.00
8487;DHT22;4280;50.534;8.708;2022-07-29T10:35:40;25.60;1.00
8487;DHT22;4280;50.534;8.708;2022-07-29T10:38:32;25.90;1.00
8487;DHT22;4280;50.534;8.708;2022-07-29T10:41:21;26.00;1.00
8487;DHT22;4280;50.534;8.708;2022-07-29T10:44:16;25.90;1.00
8487;DHT22;4280;50.534;8.708;2022-07-29T10:46:48;25.90;1.00
8487;DHT22;4280;50.534;8.708;2022-07-29T10:49:20;26.00;1.00
8487;DHT22;4280;50.534;8.708;2022-07-29T10:51:57;25.80;1.00
8487;DHT22;4280;50.534;8.708;2022-07-29T10:54:43;26.00;1.00
8487;DHT22;4280;50.534;8.708;2022-07-29T10:57:15;26.20;1.00
8487;DHT22;4280;50.534;8.708;2022-07-29T11:02:52;26.50;1.00
8487;DHT22;4280;50.534;8.708;2022-07-29T11:05:24;26.60;1.00
8487;DHT22;4280;50.534;8.708;2022-07-29T11:10:53;26.50;1.00
8487;DHT22;4280;50.534;8.708;2022-07-29T11:13:59;26.50;1.00
8487;DHT22;4280;50.534;8.708;2022-07-29T11:19:33;26.80;1.00
8487;DHT22;4280;50.534;8.708;2022-07-29T11:22:09;26.80;1.00
8487;DHT22;4280;50.534;8.708;2022-07-29T11:24:39;26.50;1.00
8487;DHT22;4280;50.534;8.708;2022-07-29T11:27:13;26.40;1.00
8487;DHT22;4280;50.534;8.708;2022-07-29T11:29:49;26.10;1.00
8487;DHT22;4280;50.534;8.708;2022-07-29T11:32:23;26.10;1.00
8487;DHT22;4280;50.534;8.708;2022-07-29T11:35:10;26.30;1.00
8487;DHT22;4280;50.534;8.708;2022-07-29T11:37:42;26.60;1.00
8487;DHT22;4280;50.534;8.708;2022-07-29T11:40:16;27.00;1.00
8487;DHT22;4280;50.534;8.708;2022-07-29T11:42:53;27.10;1.00
8487;DHT22;4280;50.534;8.708;2022-07-29T11:45:24;27.30;1.00
8487;DHT22;4280;50.534;8.708;2022-07-29T11:47:59;27.50;1.00
8487;DHT22;4280;50.534;8.708;2022-07-29T11:50:32;27.40;1.00
8487;DHT22;4280;50.534;8.708;2022-07-29T11:53:09;27.30;1.00
8487;DHT22;4280;50.534;8.708;2022-07-29T11:55:43;26.90;1.00
8487;DHT22;4280;50.534;8.708;2022-07-29T11:58:20;26.70;1.00
8487;DHT22;4280;50.534;8.708;2022-07-29T12:00:52;26.80;1.00
8487;DHT22;4280;50.534;8.708;2022-07-29T12:03:24;26.80;1.00
8487;DHT22;4280;50.534;8.708;2022-07-29T12:05:55;26.80;1.00
8487;DHT22;4280;50.534;8.708;2022-07-29T12:08:26;27.20;1.00
8487;DHT22;4280;50.534;8.708;2022-07-29T12:10:59;27.10;1.00
8487;DHT22;4280;50.534;8.708;2022-07-29T12:13:32;27.10;1.00
8487;DHT22;4280;50.534;8.708;2022-07-29T12:16:11;27.00;1.00
8487;DHT22;4280;50.534;8.708;2022-07-29T12:18:42;27.00;1.00
8487;DHT22;4280;50.534;8.708;2022-07-29T12:21:25;26.90;1.00
8487;DHT22;4280;50.534;8.708;2022-07-29T12:23:56;27.00;1.00
8487;DHT22;4280;50.534;8.708;2022-07-29T12:26:30;26.90;1.00
8487;DHT22;4280;50.534;8.708;2022-07-29T12:29:04;26.70;1.00
8487;DHT22;4280;50.534;8.708;2022-07-29T12:31:34;26.80;1.00
8487;DHT22;4280;50.534;8.708;2022-07-29T12:34:07;27.20;1.00
8487;DHT22;4280;50.534;8.708;2022-07-29T12:36:37;27.50;1.00
8487;DHT22;4280;50.534;8.708;2022-07-29T12:39:12;27.20;1.00
8487;DHT22;4280;50.534;8.708;2022-07-29T12:41:43;27.10;1.00
8487;DHT22;4280;50.534;8.708;2022-07-29T12:44:18;26.90;1.00
8487;DHT22;4280;50.534;8.708;2022-07-29T12:47:00;27.10;1.00
8487;DHT22;4280;50.534;8.708;2022-07-29T12:49:31;27.50;1.00
8487;DHT22;4280;50.534;8.708;2022-07-29T12:52:05;27.60;1.00
8487;DHT22;4280;50.534;8.708;2022-07-29T12:54:54;27.30;1.00
8487;DHT22;4280;50.534;8.708;2022-07-29T12:57:25;27.30;1.00
8487;DHT22;4280;50.534;8.708;2022-07-29T13:00:03;27.50;1.00
8487;DHT22;4280;50.534;8.708;2022-07-29T13:02:35;27.50;1.00
8487;DHT22;4280;50.534;8.708;2022-07-29T13:05:06;27.70;1.00
8487;DHT22;4280;50.534;8.708;2022-07-29T13:07:37;27.20;1.00
8487;DHT22;4280;50.534;8.708;2022-07-29T13:10:11;27.20;1.00
8487;DHT22;4280;50.534;8.708;2022-07-29T13:15:38;27.70;1.00
8487;DHT22;4280;50.534;8.708;2022-07-29T13:21:09;27.80;1.00
8487;DHT22;4280;50.534;8.708;2022-07-29T13:23:42;27.60;1.00
8487;DHT22;4280;50.534;8.708;2022-07-29T13:26:14;27.50;1.00
8487;DHT22;4280;50.534;8.708;2022-07-29T13:28:46;27.60;1.00
8487;DHT22;4280;50.534;8.708;2022-07-29T13:31:20;27.40;1.00
8487;DHT22;4280;50.534;8.708;2022-07-29T13:33:52;27.40;1.00
8487;DHT22;4280;50.534;8.708;2022-07-29T13:36:23;27.50;1.00
8487;DHT22;4280;50.534;8.708;2022-07-29T13:38:54;27.10;1.00
8487;DHT22;4280;50.534;8.708;2022-07-29T13:41:25;27.00;1.00
8487;DHT22;4280;50.534;8.708;2022-07-29T13:44:00;26.90;1.00
8487;DHT22;4280;50.534;8.708;2022-07-29T13:46:34;27.00;1.00
8487;DHT22;4280;50.534;8.708;2022-07-29T13:49:05;27.30;1.00
8487;DHT22;4280;50.534;8.708;2022-07-29T13:51:39;27.20;1.00
8487;DHT22;4280;50.534;8.708;2022-07-29T13:54:12;27.40;1.00
8487;DHT22;4280;50.534;8.708;2022-07-29T13:56:44;27.20;1.00
8487;DHT22;4280;50.534;8.708;2022-07-29T13:59:19;27.30;1.00
8487;DHT22;4280;50.534;8.708;2022-07-29T14:01:55;27.50;1.00
8487;DHT22;4280;50.534;8.708;2022-07-29T14:04:25;27.20;1.00
8487;DHT22;4280;50.534;8.708;2022-07-29T14:06:56;27.50;1.00
8487;DHT22;4280;50.534;8.708;2022-07-29T14:09:26;27.30;1.00
8487;DHT22;4280;50.534;8.708;2022-07-29T14:12:00;27.20;1.00
8487;DHT22;4280;50.534;8.708;2022-07-29T14:14:30;27.10;1.00
8487;DHT22;4280;50.534;8.708;2022-07-29T14:17:04;27.20;1.00
8487;DHT22;4280;50.534;8.708;2022-07-29T14:19:35;27.20;1.00
8487;DHT22;4280;50.534;8.708;2022-07-29T14:22:06;27.00;1.00
8487;DHT22;4280;50.534;8.708;2022-07-29T14:24:38;26.90;1.00
8487;DHT22;4280;50.534;8.708;2022-07-29T14:27:08;26.90;1.00
8487;DHT22;4280;50.534;8.708;2022-07-29T14:29:38;26.90;1.00
8487;DHT22;4280;50.534;8.708;2022-07-29T14:32:10;26.90;1.00
8487;DHT22;4280;50.534;8.708;2022-07-29T14:34:43;26.80;1.00
8487;DHT22;4280;50.534;8.708;2022-07-29T14:37:15;26.70;1.00
8487;DHT22;4280;50.534;8.708;2022-07-29T14:39:50;26.60;1.00
8487;DHT22;4280;50.534;8.708;2022-07-29T14:42:27;26.50;1.00
8487;DHT22;4280;50.534;8.708;2022-07-29T14:44:58;26.60;1.00
8487;DHT22;4280;50.534;8.708;2022-07-29T14:47:31;26.50;1.00
8487;DHT22;4280;50.534;8.708;2022-07-29T14:50:03;26.30;1.00
8487;DHT22;4280;50.534;8.708;2022-07-29T14:52:38;26.20;1.00
8487;DHT22;4280;50.534;8.708;2022-07-29T14:55:08;26.20;1.00
8487;DHT22;4280;50.534;8.708;2022-07-29T14:57:39;26.20;1.00
8487;DHT22;4280;50.534;8.708;2022-07-29T15:00:10;26.20;1.00
8487;DHT22;4280;50.534;8.708;2022-07-29T15:02:43;26.30;1.00
8487;DHT22;4280;50.534;8.708;2022-07-29T15:05:29;26.30;1.00
8487;DHT22;4280;50.534;8.708;2022-07-29T15:08:02;26.20;1.00
8487;DHT22;4280;50.534;8.708;2022-07-29T15:10:34;26.00;1.00
8487;DHT22;4280;50.534;8.708;2022-07-29T15:13:05;25.90;1.00
8487;DHT22;4280;50.534;8.708;2022-07-29T15:15:38;25.80;4.00
8487;DHT22;4280;50.534;8.708;2022-07-29T15:18:16;25.50;5.40
8487;DHT22;4280;50.534;8.708;2022-07-29T15:20:46;25.40;9.30
8487;DHT22;4280;50.534;8.708;2022-07-29T15:23:16;25.30;9.30
8487;DHT22;4280;50.534;8.708;2022-07-29T15:25:47;25.20;11.10
8487;DHT22;4280;50.534;8.708;2022-07-29T15:28:18;25.00;14.50
8487;DHT22;4280;50.534;8.708;2022-07-29T15:30:48;24.70;14.80
8487;DHT22;4280;50.534;8.708;2022-07-29T15:33:22;24.50;19.50
8487;DHT22;4280;50.534;8.708;2022-07-29T15:35:52;24.20;22.80
8487;DHT22;4280;50.534;8.708;2022-07-29T15:38:23;23.90;24.20
8487;DHT22;4280;50.534;8.708;2022-07-29T15:40:56;23.80;27.10
8487;DHT22;4280;50.534;8.708;2022-07-29T15:43:30;23.70;24.10
8487;DHT22;4280;50.534;8.708;2022-07-29T15:46:05;23.60;24.00
8487;DHT22;4280;50.534;8.708;2022-07-29T15:48:56;23.40;23.90
8487;DHT22;4280;50.534;8.708;2022-07-29T15:51:29;23.40;24.40
8487;DHT22;4280;50.534;8.708;2022-07-29T15:54:05;23.50;23.30
8487;DHT22;4280;50.534;8.708;2022-07-29T15:56:38;23.50;23.90
8487;DHT22;4280;50.534;8.708;2022-07-29T15:59:14;23.20;24.30
8487;DHT22;4280;50.534;8.708;2022-07-29T16:01:48;23.20;25.20
8487;DHT22;4280;50.534;8.708;2022-07-29T16:04:21;23.20;23.90
8487;DHT22;4280;50.534;8.708;2022-07-29T16:06:52;23.00;34.70
8487;DHT22;4280;50.534;8.708;2022-07-29T16:09:23;22.80;42.30
8487;DHT22;4280;50.534;8.708;2022-07-29T16:11:55;22.50;53.50
8487;DHT22;4280;50.534;8.708;2022-07-29T16:14:26;22.10;58.70
8487;DHT22;4280;50.534;8.708;2022-07-29T16:16:57;21.80;62.00
8487;DHT22;4280;50.534;8.708;2022-07-29T16:19:33;21.70;63.10
8487;DHT22;4280;50.534;8.708;2022-07-29T16:22:05;21.70;80.80
8487;DHT22;4280;50.534;8.708;2022-07-29T16:24:35;21.90;81.00
8487;DHT22;4280;50.534;8.708;2022-07-29T16:27:06;22.00;75.00
8487;DHT22;4280;50.534;8.708;2022-07-29T16:29:36;22.30;70.30
8487;DHT22;4280;50.534;8.708;2022-07-29T16:32:06;22.70;65.00
8487;DHT22;4280;50.534;8.708;2022-07-29T16:34:41;23.30;59.90
8487;DHT22;4280;50.534;8.708;2022-07-29T16:37:12;23.70;45.60
8487;DHT22;4280;50.534;8.708;2022-07-29T16:39:42;24.20;32.80
8487;DHT22;4280;50.534;8.708;2022-07-29T16:42:12;24.80;32.80
8487;DHT22;4280;50.534;8.708;2022-07-29T16:44:57;25.50;25.30
8487;DHT22;4280;50.534;8.708;2022-07-29T16:47:29;26.00;20.40
8487;DHT22;4280;50.534;8.708;2022-07-29T16:50:02;26.50;15.50
8487;DHT22;4280;50.534;8.708;2022-07-29T16:52:35;26.50;20.60
8487;DHT22;4280;50.534;8.708;2022-07-29T16:55:06;26.80;13.20
8487;DHT22;4280;50.534;8.708;2022-07-29T16:57:39;27.20;12.00
8487;DHT22;4280;50.534;8.708;2022-07-29T17:00:12;27.30;8.60
8487;DHT22;4280;50.534;8.708;2022-07-29T17:02:45;27.30;9.80
8487;DHT22;4280;50.534;8.708;2022-07-29T17:05:19;27.20;8.90
8487;DHT22;4280;50.534;8.708;2022-07-29T17:07:49;27.50;6.10
8487;DHT22;4280;50.534;8.708;2022-07-29T17:10:20;27.10;6.80
8487;DHT22;4280;50.534;8.708;2022-07-29T17:12:51;26.80;10.20
8487;DHT22;4280;50.534;8.708;2022-07-29T17:15:21;26.30;11.50
8487;DHT22;4280;50.534;8.708;2022-07-29T17:17:51;25.60;14.80